createdAt,value
2023-01-31T00:00:30.579Z,2.00
2023-01-31T00:01:36.173Z,3.00
2023-01-31T00:02:38.891Z,2.55
2023-01-31T00:03:43.455Z,2.17
2023-01-31T00:04:46.072Z,2.30
2023-01-31T00:05:48.594Z,3.83
2023-01-31T00:06:52.313Z,2.42
2023-01-31T00:07:55.675Z,2.35
2023-01-31T00:08:59.751Z,2.33
2023-01-31T00:10:02.423Z,2.15
2023-01-31T00:11:05.035Z,2.75
2023-01-31T00:12:07.806Z,2.95
2023-01-31T00:13:10.438Z,2.88
2023-01-31T00:14:19.562Z,2.30
2023-01-31T00:15:22.352Z,2.67
2023-01-31T00:16:25.929Z,2.20
2023-01-31T00:17:28.928Z,2.70
2023-01-31T00:18:31.938Z,2.75
2023-01-31T00:19:34.924Z,3.45
2023-01-31T00:20:38.634Z,2.00
2023-01-31T00:21:44.050Z,4.18
2023-01-31T00:22:47.173Z,2.85
2023-01-31T00:23:51.137Z,2.75
2023-01-31T00:24:54.257Z,3.28
2023-01-31T00:26:10.592Z,3.58
2023-01-31T00:27:13.829Z,2.83
2023-01-31T00:28:16.943Z,2.20
2023-01-31T00:29:20.065Z,3.42
2023-01-31T00:30:23.191Z,3.33
2023-01-31T00:31:29.280Z,2.60
2023-01-31T00:32:32.551Z,3.33
2023-01-31T00:33:39.511Z,2.28
2023-01-31T00:34:42.638Z,3.33
2023-01-31T00:35:48.636Z,2.20
2023-01-31T00:36:51.759Z,2.75
2023-01-31T00:37:55.121Z,2.75
2023-01-31T00:38:59.926Z,2.85
2023-01-31T00:40:03.187Z,4.07
2023-01-31T00:41:06.886Z,4.30
2023-01-31T00:42:10.007Z,2.67
2023-01-31T00:43:13.249Z,2.63
2023-01-31T00:44:16.849Z,2.72
2023-01-31T00:45:20.342Z,2.70
2023-01-31T00:46:26.723Z,1.40
2023-01-31T00:47:29.950Z,3.10
2023-01-31T00:48:33.304Z,1.70
2023-01-31T00:49:36.960Z,2.72
2023-01-31T00:50:40.501Z,3.30
2023-01-31T00:51:45.181Z,2.25
2023-01-31T00:52:48.448Z,2.33
2023-01-31T00:53:52.264Z,2.63
2023-01-31T00:54:55.867Z,2.15
2023-01-31T00:56:08.228Z,2.40
2023-01-31T00:57:11.713Z,3.00
2023-01-31T00:58:14.598Z,2.13
2023-01-31T00:59:17.354Z,2.22
2023-01-31T01:00:20.722Z,1.92
2023-01-31T01:01:29.004Z,1.90
2023-01-31T01:02:32.005Z,2.83
2023-01-31T01:03:35.407Z,2.88
2023-01-31T01:04:38.125Z,2.28
2023-01-31T01:05:41.370Z,2.08
2023-01-31T01:06:44.059Z,3.22
2023-01-31T01:07:47.736Z,2.95
2023-01-31T01:08:50.369Z,3.58
2023-01-31T01:09:54.587Z,1.80
2023-01-31T01:10:57.867Z,2.67
2023-01-31T01:12:00.406Z,2.33
2023-01-31T01:13:05.915Z,4.80
2023-01-31T01:14:08.542Z,4.03
2023-01-31T01:15:11.305Z,1.90
2023-01-31T01:16:20.225Z,2.85
2023-01-31T01:17:22.701Z,2.08
2023-01-31T01:18:25.341Z,2.97
2023-01-31T01:19:27.869Z,1.90
2023-01-31T01:20:31.182Z,3.45
2023-01-31T01:21:39.189Z,2.55
2023-01-31T01:22:42.883Z,3.63
2023-01-31T01:23:47.392Z,3.00
2023-01-31T01:24:49.945Z,1.98
2023-01-31T01:25:52.487Z,1.83
2023-01-31T01:26:57.399Z,4.50
2023-01-31T01:28:00.032Z,1.88
2023-01-31T01:29:04.091Z,2.40
2023-01-31T01:30:07.960Z,1.55
2023-01-31T01:31:12.715Z,2.40
2023-01-31T01:32:17.115Z,2.50
2023-01-31T01:33:19.714Z,3.03
2023-01-31T01:34:22.232Z,2.40
2023-01-31T01:35:24.756Z,3.17
2023-01-31T01:36:28.356Z,2.25
2023-01-31T01:37:31.299Z,1.90
2023-01-31T01:38:38.089Z,3.63
2023-01-31T01:39:41.077Z,1.77
2023-01-31T01:40:46.484Z,2.25
2023-01-31T01:41:51.280Z,2.30
2023-01-31T01:42:53.932Z,2.85
2023-01-31T01:43:59.812Z,1.75
2023-01-31T01:45:05.586Z,3.25
2023-01-31T01:46:11.249Z,2.47
2023-01-31T01:47:43.082Z,3.58
2023-01-31T01:48:48.771Z,3.20
2023-01-31T01:49:57.885Z,2.83
2023-01-31T01:51:04.009Z,2.78
2023-01-31T01:52:10.488Z,3.72
2023-01-31T01:53:18.299Z,2.85
2023-01-31T01:54:28.562Z,2.97
2023-01-31T01:55:40.378Z,3.90
2023-01-31T01:56:46.140Z,3.25
2023-01-31T01:57:52.498Z,2.83
2023-01-31T01:59:07.134Z,2.30
2023-01-31T02:00:36.655Z,2.72
2023-01-31T02:01:40.855Z,3.33
2023-01-31T02:02:47.456Z,2.92
2023-01-31T02:03:53.224Z,2.08
2023-01-31T02:04:55.749Z,3.22
2023-01-31T02:06:04.388Z,2.42
2023-01-31T02:07:09.192Z,2.63
2023-01-31T02:08:16.026Z,2.38
2023-01-31T02:09:47.111Z,3.60
2023-01-31T02:10:58.629Z,2.75
2023-01-31T02:12:01.271Z,1.70
2023-01-31T02:13:04.877Z,3.83
2023-01-31T02:14:10.645Z,3.33
2023-01-31T02:15:13.406Z,2.92
2023-01-31T02:16:16.541Z,2.88
2023-01-31T02:17:20.006Z,2.03
2023-01-31T02:18:24.567Z,2.55
2023-01-31T02:19:46.176Z,2.20
2023-01-31T02:21:00.806Z,1.95
2023-01-31T02:22:17.487Z,2.58
2023-01-31T02:23:32.131Z,2.20
2023-01-31T02:24:44.611Z,2.30
2023-01-31T02:26:23.634Z,2.50
2023-01-31T02:27:55.907Z,3.10
2023-01-31T02:29:17.381Z,1.95
2023-01-31T02:30:48.021Z,2.45
2023-01-31T02:32:00.259Z,1.90
2023-01-31T02:33:12.949Z,1.63
2023-01-31T02:34:20.990Z,2.10
2023-01-31T02:35:24.634Z,1.90
2023-01-31T02:36:39.834Z,2.30
2023-01-31T02:38:03.118Z,3.00
2023-01-31T02:39:26.567Z,2.78
2023-01-31T02:40:48.959Z,2.42
2023-01-31T02:42:05.282Z,2.63
2023-01-31T02:43:26.763Z,2.30
2023-01-31T02:45:00.614Z,2.78
2023-01-31T02:46:15.658Z,2.63
2023-01-31T02:47:51.024Z,1.90
2023-01-31T02:49:06.494Z,2.35
2023-01-31T02:50:34.697Z,2.70
2023-01-31T02:52:08.296Z,2.45
2023-01-31T02:53:33.037Z,2.78
2023-01-31T02:54:56.805Z,1.67
2023-01-31T02:56:20.653Z,3.22
2023-01-31T02:57:24.153Z,2.42
2023-01-31T02:58:31.588Z,2.03
2023-01-31T02:59:36.732Z,2.85
2023-01-31T03:00:45.556Z,2.28
2023-01-31T03:02:02.397Z,2.25
2023-01-31T03:03:18.793Z,2.80
2023-01-31T03:04:22.554Z,2.83
2023-01-31T03:05:26.123Z,1.83
2023-01-31T03:06:29.135Z,2.70
2023-01-31T03:07:35.689Z,3.08
2023-01-31T03:08:43.129Z,1.88
2023-01-31T03:10:20.734Z,3.28
2023-01-31T03:11:31.422Z,1.98
2023-01-31T03:13:11.625Z,2.83
2023-01-31T03:14:31.252Z,2.83
2023-01-31T03:16:41.304Z,3.97
2023-01-31T03:18:11.460Z,2.20
2023-01-31T03:19:34.542Z,2.15
2023-01-31T03:20:44.466Z,3.08
2023-01-31T03:21:53.342Z,2.58
2023-01-31T03:23:04.151Z,2.53
2023-01-31T03:24:08.509Z,2.20
2023-01-31T03:25:13.669Z,1.58
2023-01-31T03:26:20.905Z,1.90
2023-01-31T03:27:24.831Z,1.52
2023-01-31T03:28:33.112Z,2.25
2023-01-31T03:29:38.775Z,2.00
2023-01-31T03:30:57.351Z,3.45
2023-01-31T03:32:07.163Z,3.30
2023-01-31T03:33:17.153Z,1.60
2023-01-31T03:34:20.292Z,3.17
2023-01-31T03:35:27.808Z,2.13
2023-01-31T03:36:50.879Z,2.63
2023-01-31T03:38:14.523Z,4.80
2023-01-31T03:39:46.779Z,2.42
2023-01-31T03:40:58.079Z,1.98
2023-01-31T03:42:13.570Z,2.83
2023-01-31T03:43:31.829Z,1.90
2023-01-31T03:44:56.668Z,1.42
2023-01-31T03:46:06.627Z,2.88
2023-01-31T03:47:17.978Z,1.70
2023-01-31T03:48:22.928Z,3.20
2023-01-31T03:49:27.844Z,2.88
2023-01-31T03:50:38.763Z,1.55
2023-01-31T03:51:52.571Z,2.20
2023-01-31T03:53:05.530Z,2.17
2023-01-31T03:54:19.077Z,1.95
2023-01-31T03:55:55.454Z,2.45
2023-01-31T03:57:08.776Z,2.70
2023-01-31T03:58:14.266Z,2.50
2023-01-31T03:59:22.946Z,1.92
2023-01-31T04:00:27.255Z,2.42
2023-01-31T04:01:36.028Z,2.67
2023-01-31T04:02:39.529Z,2.55
2023-01-31T04:04:04.575Z,2.15
2023-01-31T04:05:10.936Z,2.97
2023-01-31T04:06:17.177Z,1.92
2023-01-31T04:07:20.433Z,1.95
2023-01-31T04:08:22.944Z,1.70
2023-01-31T04:09:34.705Z,4.45
2023-01-31T04:10:37.354Z,1.58
2023-01-31T04:11:42.147Z,2.15
2023-01-31T04:12:45.630Z,2.65
2023-01-31T04:13:48.276Z,1.42
2023-01-31T04:14:51.060Z,2.28
2023-01-31T04:15:53.820Z,2.13
2023-01-31T04:16:56.458Z,3.05
2023-01-31T04:17:59.200Z,2.13
2023-01-31T04:19:01.848Z,2.55
2023-01-31T04:20:06.171Z,3.03
2023-01-31T04:21:10.668Z,2.08
2023-01-31T04:22:13.503Z,2.95
2023-01-31T04:23:16.254Z,2.10
2023-01-31T04:24:18.889Z,1.45
2023-01-31T04:25:22.238Z,3.00
2023-01-31T04:26:25.543Z,1.98
2023-01-31T04:27:28.614Z,2.42
2023-01-31T04:28:32.147Z,1.48
2023-01-31T04:29:35.221Z,1.90
2023-01-31T04:30:38.699Z,1.20
2023-01-31T04:31:41.911Z,1.80
2023-01-31T04:32:45.062Z,2.33
2023-01-31T04:33:48.188Z,2.13
2023-01-31T04:34:51.306Z,2.13
2023-01-31T04:35:54.671Z,1.88
2023-01-31T04:36:57.808Z,2.00
2023-01-31T04:38:00.907Z,2.50
2023-01-31T04:39:04.167Z,2.33
2023-01-31T04:40:08.639Z,2.72
2023-01-31T04:41:11.972Z,2.58
2023-01-31T04:42:15.085Z,1.10
2023-01-31T04:43:18.209Z,1.88
2023-01-31T04:44:21.444Z,1.23
2023-01-31T04:45:24.565Z,3.60
2023-01-31T04:46:27.886Z,3.00
2023-01-31T04:47:31.046Z,1.30
2023-01-31T04:48:34.289Z,1.75
2023-01-31T04:49:37.529Z,1.77
2023-01-31T04:50:40.650Z,1.40
2023-01-31T04:51:43.892Z,2.25
2023-01-31T04:52:51.337Z,1.25
2023-01-31T04:53:54.700Z,2.00
2023-01-31T04:54:57.938Z,1.67
2023-01-31T04:56:01.308Z,1.15
2023-01-31T04:57:04.805Z,2.15
2023-01-31T04:58:08.769Z,1.45
2023-01-31T04:59:12.227Z,2.78
2023-01-31T05:00:15.830Z,1.42
2023-01-31T05:01:19.239Z,1.45
2023-01-31T05:02:23.811Z,1.08
2023-01-31T05:03:26.998Z,1.38
2023-01-31T05:04:30.114Z,1.48
2023-01-31T05:05:36.349Z,2.08
2023-01-31T05:06:39.365Z,1.38
2023-01-31T05:07:43.205Z,1.63
2023-01-31T05:08:45.961Z,2.00
2023-01-31T05:09:48.964Z,1.65
2023-01-31T05:10:58.567Z,1.58
2023-01-31T05:12:01.325Z,1.40
2023-01-31T05:13:04.036Z,1.50
2023-01-31T05:14:07.018Z,1.63
2023-01-31T05:15:11.901Z,2.80
2023-01-31T05:16:14.745Z,2.55
2023-01-31T05:17:17.534Z,1.20
2023-01-31T05:18:20.224Z,2.28
2023-01-31T05:19:22.818Z,1.70
2023-01-31T05:20:25.385Z,2.00
2023-01-31T05:21:28.103Z,1.98
2023-01-31T05:22:31.311Z,2.50
2023-01-31T05:23:34.225Z,2.63
2023-01-31T05:24:37.266Z,1.75
2023-01-31T05:25:39.919Z,1.92
2023-01-31T05:26:42.532Z,2.00
2023-01-31T05:27:45.272Z,1.58
2023-01-31T05:28:48.190Z,1.55
2023-01-31T05:29:50.834Z,1.65
2023-01-31T05:30:54.199Z,1.35
2023-01-31T05:31:59.059Z,1.75
2023-01-31T05:33:01.845Z,1.38
2023-01-31T05:34:04.481Z,2.55
2023-01-31T05:35:07.405Z,1.30
2023-01-31T05:36:10.008Z,3.22
2023-01-31T05:37:12.930Z,1.92
2023-01-31T05:38:16.071Z,3.13
2023-01-31T05:39:18.799Z,1.33
2023-01-31T05:40:22.289Z,1.65
2023-01-31T05:41:24.919Z,2.53
2023-01-31T05:42:27.677Z,1.80
2023-01-31T05:43:30.323Z,1.65
2023-01-31T05:44:33.541Z,1.45
2023-01-31T05:45:36.117Z,2.50
2023-01-31T05:46:38.850Z,2.03
2023-01-31T05:47:41.363Z,1.45
2023-01-31T05:48:43.885Z,1.67
2023-01-31T05:49:46.406Z,1.33
2023-01-31T05:50:50.865Z,2.70
2023-01-31T05:51:53.368Z,1.80
2023-01-31T05:52:59.848Z,1.95
2023-01-31T05:54:02.878Z,1.60
2023-01-31T05:55:06.209Z,2.22
2023-01-31T05:56:08.737Z,1.85
2023-01-31T05:57:11.375Z,2.22
2023-01-31T05:58:14.013Z,2.13
2023-01-31T05:59:16.533Z,1.88
2023-01-31T06:00:19.549Z,1.58
2023-01-31T06:01:24.092Z,2.53
2023-01-31T06:02:26.794Z,1.80
2023-01-31T06:03:29.277Z,2.50
2023-01-31T06:04:32.138Z,2.00
2023-01-31T06:05:34.775Z,2.13
2023-01-31T06:06:37.901Z,2.60
2023-01-31T06:07:41.388Z,3.55
2023-01-31T06:08:43.925Z,2.17
2023-01-31T06:09:46.427Z,1.58
2023-01-31T06:10:48.947Z,2.45
2023-01-31T06:11:51.464Z,2.30
2023-01-31T06:12:53.992Z,2.42
2023-01-31T06:13:58.581Z,2.08
2023-01-31T06:15:01.203Z,2.35
2023-01-31T06:16:03.963Z,2.78
2023-01-31T06:17:06.474Z,3.22
2023-01-31T06:18:09.115Z,4.07
2023-01-31T06:19:11.641Z,1.90
2023-01-31T06:20:14.429Z,4.03
2023-01-31T06:21:17.039Z,1.88
2023-01-31T06:22:20.648Z,2.22
2023-01-31T06:23:23.525Z,2.28
2023-01-31T06:24:26.284Z,2.63
2023-01-31T06:25:28.929Z,2.45
2023-01-31T06:26:32.050Z,2.25
2023-01-31T06:27:35.071Z,3.22
2023-01-31T06:28:38.174Z,2.65
2023-01-31T06:29:40.932Z,4.18
2023-01-31T06:30:44.322Z,3.30
2023-01-31T06:31:47.445Z,2.85
2023-01-31T06:32:50.423Z,4.32
2023-01-31T06:33:53.300Z,3.13
2023-01-31T06:34:56.318Z,3.50
2023-01-31T06:36:03.265Z,2.88
2023-01-31T06:37:10.480Z,2.60
2023-01-31T06:38:13.607Z,2.88
2023-01-31T06:39:16.710Z,2.90
2023-01-31T06:40:19.832Z,5.70
2023-01-31T06:41:23.071Z,3.17
2023-01-31T06:42:26.314Z,3.65
2023-01-31T06:43:29.436Z,3.03
2023-01-31T06:44:33.755Z,2.92
2023-01-31T06:45:38.199Z,2.63
2023-01-31T06:46:41.445Z,3.33
2023-01-31T06:47:47.588Z,3.20
2023-01-31T06:48:50.683Z,4.25
2023-01-31T06:49:53.805Z,3.15
2023-01-31T06:50:57.888Z,2.58
2023-01-31T06:52:01.011Z,3.42
2023-01-31T06:53:04.268Z,3.00
2023-01-31T06:54:07.379Z,4.15
2023-01-31T06:55:11.935Z,4.15
2023-01-31T06:56:15.057Z,2.53
2023-01-31T06:57:18.061Z,3.50
2023-01-31T06:58:21.301Z,2.92
2023-01-31T06:59:24.429Z,2.72
2023-01-31T07:00:27.783Z,2.97
2023-01-31T07:01:31.479Z,3.53
2023-01-31T07:02:35.128Z,2.30
2023-01-31T07:03:38.472Z,3.83
2023-01-31T07:04:41.917Z,3.78
2023-01-31T07:05:46.635Z,3.35
2023-01-31T07:06:49.753Z,3.20
2023-01-31T07:07:53.714Z,4.07
2023-01-31T07:08:56.720Z,3.42
2023-01-31T07:09:59.720Z,5.80
2023-01-31T07:11:03.329Z,2.50
2023-01-31T07:12:06.212Z,4.00
2023-01-31T07:13:08.854Z,4.15
2023-01-31T07:14:11.365Z,4.00
2023-01-31T07:15:14.128Z,3.58
2023-01-31T07:16:17.516Z,3.17
2023-01-31T07:17:21.330Z,2.65
2023-01-31T07:18:24.214Z,2.75
2023-01-31T07:19:27.096Z,3.78
2023-01-31T07:20:30.507Z,4.70
2023-01-31T07:21:36.148Z,3.20
2023-01-31T07:22:39.219Z,3.42
2023-01-31T07:23:42.507Z,3.53
2023-01-31T07:24:45.348Z,4.00
2023-01-31T07:25:48.105Z,4.38
2023-01-31T07:26:55.294Z,3.53
2023-01-31T07:27:58.113Z,3.28
2023-01-31T07:29:00.870Z,3.97
2023-01-31T07:30:03.715Z,4.00
2023-01-31T07:31:11.097Z,4.07
2023-01-31T07:32:14.314Z,5.88
2023-01-31T07:33:17.291Z,4.80
2023-01-31T07:34:23.154Z,4.00
2023-01-31T07:35:25.844Z,4.68
2023-01-31T07:36:29.045Z,3.50
2023-01-31T07:37:32.209Z,4.25
2023-01-31T07:38:35.647Z,4.10
2023-01-31T07:39:38.407Z,4.57
2023-01-31T07:40:40.959Z,4.05
2023-01-31T07:41:43.451Z,4.80
2023-01-31T07:42:46.239Z,4.15
2023-01-31T07:43:49.111Z,4.30
2023-01-31T07:44:51.819Z,5.55
2023-01-31T07:45:54.532Z,4.25
2023-01-31T07:46:57.318Z,4.05
2023-01-31T07:48:00.057Z,4.40
2023-01-31T07:49:02.695Z,5.00
2023-01-31T07:50:05.684Z,3.95
2023-01-31T07:51:08.810Z,4.32
2023-01-31T07:52:11.326Z,4.97
2023-01-31T07:53:13.848Z,4.32
2023-01-31T07:54:16.491Z,4.75
2023-01-31T07:55:19.396Z,3.58
2023-01-31T07:56:22.855Z,4.75
2023-01-31T07:57:25.614Z,5.28
2023-01-31T07:58:28.132Z,6.85
2023-01-31T07:59:30.748Z,4.63
2023-01-31T08:00:52.174Z,4.10
2023-01-31T08:02:13.263Z,3.92
2023-01-31T08:03:34.053Z,5.75
2023-01-31T08:04:36.826Z,4.75
2023-01-31T08:05:39.441Z,5.43
2023-01-31T08:06:43.615Z,5.80
2023-01-31T08:08:06.055Z,4.70
2023-01-31T08:09:08.940Z,4.90
2023-01-31T08:10:12.059Z,6.15
2023-01-31T08:11:14.701Z,4.22
2023-01-31T08:12:17.345Z,5.65
2023-01-31T08:13:19.741Z,4.90
2023-01-31T08:14:25.570Z,4.68
2023-01-31T08:15:30.665Z,4.28
2023-01-31T08:16:33.314Z,5.70
2023-01-31T08:17:35.830Z,5.28
2023-01-31T08:18:39.070Z,6.50
2023-01-31T08:19:41.836Z,4.63
2023-01-31T08:20:44.996Z,5.80
2023-01-31T08:21:47.602Z,5.43
2023-01-31T08:22:50.240Z,5.05
2023-01-31T08:23:52.884Z,5.03
2023-01-31T08:24:55.403Z,4.85
2023-01-31T08:26:04.200Z,4.50
2023-01-31T08:27:06.806Z,4.70
2023-01-31T08:28:10.173Z,5.75
2023-01-31T08:29:12.954Z,4.90
2023-01-31T08:30:15.703Z,5.03
2023-01-31T08:31:21.918Z,5.80
2023-01-31T08:32:24.658Z,6.32
2023-01-31T08:33:27.605Z,6.32
2023-01-31T08:34:30.584Z,5.43
2023-01-31T08:35:33.336Z,5.20
2023-01-31T08:36:36.976Z,6.25
2023-01-31T08:37:41.383Z,5.50
2023-01-31T08:38:45.214Z,5.15
2023-01-31T08:39:49.067Z,5.95
2023-01-31T08:40:52.310Z,4.60
2023-01-31T08:41:55.429Z,6.03
2023-01-31T08:43:00.831Z,6.00
2023-01-31T08:44:05.272Z,6.85
2023-01-31T08:45:08.635Z,5.05
2023-01-31T08:46:12.382Z,5.70
2023-01-31T08:47:15.477Z,4.70
2023-01-31T08:48:18.632Z,6.15
2023-01-31T08:49:21.729Z,5.57
2023-01-31T08:50:28.195Z,5.20
2023-01-31T08:51:31.682Z,6.72
2023-01-31T08:52:35.886Z,6.17
2023-01-31T08:53:41.333Z,4.93
2023-01-31T08:54:44.530Z,5.43
2023-01-31T08:55:47.781Z,5.55
2023-01-31T08:56:51.014Z,5.35
2023-01-31T08:57:59.664Z,4.90
2023-01-31T08:59:03.376Z,5.05
2023-01-31T09:00:07.971Z,6.60
2023-01-31T09:01:14.372Z,6.22
2023-01-31T09:02:17.784Z,4.70
2023-01-31T09:03:21.382Z,6.25
2023-01-31T09:04:24.747Z,4.13
2023-01-31T09:05:30.098Z,6.15
2023-01-31T09:06:33.537Z,4.35
2023-01-31T09:07:36.750Z,4.75
2023-01-31T09:08:39.992Z,4.97
2023-01-31T09:09:43.354Z,5.32
2023-01-31T09:10:56.195Z,5.32
2023-01-31T09:11:59.318Z,5.65
2023-01-31T09:13:02.318Z,5.65
2023-01-31T09:14:05.081Z,4.25
2023-01-31T09:15:08.565Z,4.22
2023-01-31T09:16:12.765Z,4.65
2023-01-31T09:17:15.553Z,3.63
2023-01-31T09:18:18.292Z,4.10
2023-01-31T09:19:22.852Z,4.13
2023-01-31T09:20:25.618Z,4.93
2023-01-31T09:21:28.655Z,4.68
2023-01-31T09:22:31.512Z,4.30
2023-01-31T09:23:34.552Z,5.05
2023-01-31T09:24:37.378Z,3.50
2023-01-31T09:25:47.016Z,4.90
2023-01-31T09:26:50.228Z,4.57
2023-01-31T09:27:53.752Z,4.15
2023-01-31T09:28:58.067Z,4.13
2023-01-31T09:30:00.608Z,4.97
2023-01-31T09:31:05.730Z,4.25
2023-01-31T09:32:08.281Z,4.03
2023-01-31T09:33:10.918Z,4.85
2023-01-31T09:34:15.213Z,4.18
2023-01-31T09:35:19.672Z,6.45
2023-01-31T09:36:25.034Z,5.63
2023-01-31T09:37:30.962Z,4.55
2023-01-31T09:38:34.264Z,5.22
2023-01-31T09:39:36.838Z,3.90
2023-01-31T09:40:41.038Z,4.05
2023-01-31T09:42:01.554Z,4.32
2023-01-31T09:43:05.282Z,4.32
2023-01-31T09:44:15.577Z,3.83
2023-01-31T09:45:32.016Z,5.50
2023-01-31T09:46:42.868Z,4.10
2023-01-31T09:48:55.897Z,5.13
2023-01-31T09:50:03.225Z,4.00
2023-01-31T09:51:06.390Z,4.97
2023-01-31T09:52:11.283Z,3.55
2023-01-31T09:53:21.905Z,4.13
2023-01-31T09:54:38.668Z,4.57
2023-01-31T09:56:09.630Z,4.25
2023-01-31T09:57:12.155Z,5.57
2023-01-31T09:58:20.652Z,4.40
2023-01-31T09:59:30.805Z,4.03
2023-01-31T10:00:48.109Z,4.07
2023-01-31T10:02:22.931Z,3.92
2023-01-31T10:03:43.712Z,3.22
2023-01-31T10:05:13.590Z,3.67
2023-01-31T10:06:24.614Z,3.03
2023-01-31T10:07:36.744Z,3.40
2023-01-31T10:08:51.532Z,3.50
2023-01-31T10:10:24.260Z,4.47
2023-01-31T10:11:39.023Z,4.28
2023-01-31T10:12:48.629Z,3.72
2023-01-31T10:13:58.827Z,5.22
2023-01-31T10:15:06.862Z,4.53
2023-01-31T10:16:25.227Z,3.60
2023-01-31T10:17:59.549Z,3.63
2023-01-31T10:19:25.474Z,4.18
2023-01-31T10:20:47.549Z,3.08
2023-01-31T10:21:55.717Z,4.75
2023-01-31T10:23:05.680Z,4.05
2023-01-31T10:24:23.924Z,3.17
2023-01-31T10:25:30.312Z,3.38
2023-01-31T10:26:37.301Z,4.03
2023-01-31T10:27:46.362Z,3.22
2023-01-31T10:28:55.963Z,3.45
2023-01-31T10:30:00.895Z,4.78
2023-01-31T10:31:31.441Z,3.17
2023-01-31T10:34:07.035Z,3.10
2023-01-31T10:35:15.661Z,4.35
2023-01-31T10:36:46.975Z,3.47
2023-01-31T10:37:55.873Z,3.35
2023-01-31T10:39:07.260Z,3.38
2023-01-31T10:40:17.225Z,5.40
2023-01-31T10:41:32.019Z,3.92
2023-01-31T10:42:37.759Z,3.97
2023-01-31T10:43:50.827Z,3.53
2023-01-31T10:44:59.358Z,3.17
2023-01-31T10:46:03.020Z,3.42
2023-01-31T10:47:15.800Z,5.13
2023-01-31T10:48:27.315Z,3.53
2023-01-31T10:49:31.300Z,4.30
2023-01-31T10:51:06.803Z,3.70
2023-01-31T10:52:38.846Z,3.90
2023-01-31T10:53:58.647Z,3.15
2023-01-31T10:55:38.968Z,3.88
2023-01-31T10:56:48.002Z,3.45
2023-01-31T10:57:52.178Z,3.33
2023-01-31T10:58:57.092Z,3.63
2023-01-31T11:00:00.337Z,4.10
2023-01-31T11:01:12.354Z,3.38
2023-01-31T11:02:24.141Z,4.78
2023-01-31T11:03:27.343Z,4.80
2023-01-31T11:04:52.423Z,3.20
2023-01-31T11:05:58.663Z,4.53
2023-01-31T11:07:03.586Z,4.18
2023-01-31T11:08:45.960Z,4.05
2023-01-31T11:09:54.950Z,4.18
2023-01-31T11:11:04.674Z,4.70
2023-01-31T11:12:09.151Z,3.88
2023-01-31T11:13:19.559Z,3.33
2023-01-31T11:14:23.038Z,3.28
2023-01-31T11:15:29.048Z,3.60
2023-01-31T11:16:38.728Z,2.90
2023-01-31T11:17:44.523Z,4.05
2023-01-31T11:18:51.005Z,3.53
2023-01-31T11:19:56.295Z,3.45
2023-01-31T11:21:00.970Z,3.42
2023-01-31T11:22:04.941Z,2.95
2023-01-31T11:23:07.756Z,3.45
2023-01-31T11:24:20.895Z,2.78
2023-01-31T11:25:26.182Z,2.60
2023-01-31T11:26:32.236Z,3.00
2023-01-31T11:27:40.944Z,4.55
2023-01-31T11:28:52.949Z,3.90
2023-01-31T11:29:59.953Z,3.40
2023-01-31T11:31:06.237Z,3.97
2023-01-31T11:32:19.467Z,3.28
2023-01-31T11:33:45.395Z,2.83
2023-01-31T11:35:28.714Z,2.90
2023-01-31T11:36:42.804Z,3.20
2023-01-31T11:38:22.446Z,2.72
2023-01-31T11:39:33.936Z,3.90
2023-01-31T11:40:41.095Z,3.72
2023-01-31T11:41:43.652Z,2.92
2023-01-31T11:42:51.805Z,3.60
2023-01-31T11:44:12.443Z,2.63
2023-01-31T11:45:21.293Z,2.80
2023-01-31T11:46:24.062Z,3.22
2023-01-31T11:47:42.088Z,3.58
2023-01-31T11:48:45.775Z,2.30
2023-01-31T11:49:50.720Z,4.35
2023-01-31T11:50:58.766Z,3.22
2023-01-31T11:52:22.868Z,3.50
2023-01-31T11:53:33.568Z,2.75
2023-01-31T11:54:36.214Z,4.07
2023-01-31T11:55:39.932Z,3.17
2023-01-31T11:56:42.693Z,3.05
2023-01-31T11:57:45.569Z,2.90
2023-01-31T11:58:54.109Z,2.83
2023-01-31T11:59:59.150Z,2.70
2023-01-31T12:01:07.294Z,2.65
2023-01-31T12:02:40.435Z,2.55
2023-01-31T12:04:01.951Z,2.40
2023-01-31T12:05:16.300Z,3.08
2023-01-31T12:06:38.760Z,2.50
2023-01-31T12:07:50.416Z,1.88
2023-01-31T12:08:58.194Z,2.35
2023-01-31T12:10:00.841Z,2.42
2023-01-31T12:11:27.704Z,2.88
2023-01-31T12:12:35.507Z,1.77
2023-01-31T12:13:49.328Z,1.88
2023-01-31T12:14:55.073Z,1.88
2023-01-31T12:16:06.121Z,2.28
2023-01-31T12:17:15.117Z,1.92
2023-01-31T12:18:42.016Z,2.03
2023-01-31T12:19:57.502Z,1.95
2023-01-31T12:21:13.189Z,2.45
2023-01-31T12:22:22.672Z,2.10
2023-01-31T12:24:06.740Z,2.00
2023-01-31T12:25:19.131Z,1.85
2023-01-31T12:26:32.538Z,1.63
2023-01-31T12:28:12.732Z,1.88
2023-01-31T12:29:42.961Z,1.77
2023-01-31T12:30:56.009Z,2.10
2023-01-31T12:32:24.485Z,1.60
2023-01-31T12:33:54.623Z,1.42
2023-01-31T12:35:38.172Z,1.92
2023-01-31T12:36:59.174Z,1.85
2023-01-31T12:39:25.337Z,1.80
2023-01-31T12:41:01.699Z,1.50
2023-01-31T12:42:42.152Z,1.35
2023-01-31T12:44:25.468Z,1.10
2023-01-31T12:45:54.176Z,1.58
2023-01-31T12:47:34.495Z,1.25
2023-01-31T12:48:40.115Z,1.40
2023-01-31T12:50:04.601Z,0.95
2023-01-31T12:51:45.051Z,1.15
2023-01-31T12:53:09.288Z,1.27
2023-01-31T12:54:27.290Z,1.15
2023-01-31T12:55:42.296Z,1.88
2023-01-31T12:57:09.792Z,1.20
2023-01-31T12:58:42.165Z,1.25
2023-01-31T13:00:12.672Z,1.20
2023-01-31T13:01:34.186Z,1.48
2023-01-31T13:02:37.525Z,1.15
2023-01-31T13:04:07.878Z,1.02
2023-01-31T13:05:34.394Z,1.23
2023-01-31T13:06:43.140Z,1.58
2023-01-31T13:08:05.830Z,1.70
2023-01-31T13:09:29.115Z,1.52
2023-01-31T13:10:43.762Z,1.10
2023-01-31T13:12:06.072Z,1.08
2023-01-31T13:13:21.433Z,1.02
2023-01-31T13:14:29.954Z,1.38
2023-01-31T13:15:49.930Z,1.15
2023-01-31T13:17:03.075Z,1.50
2023-01-31T13:18:07.661Z,1.40
2023-01-31T13:19:24.685Z,1.90
2023-01-31T13:20:38.487Z,1.83
2023-01-31T13:21:47.009Z,1.65
2023-01-31T13:22:55.888Z,1.90
2023-01-31T13:24:14.009Z,1.75
2023-01-31T13:25:29.028Z,1.40
2023-01-31T13:26:38.636Z,1.92
2023-01-31T13:27:49.431Z,2.53
2023-01-31T13:29:00.820Z,1.20
2023-01-31T13:30:17.867Z,2.03
2023-01-31T13:31:25.042Z,1.80
2023-01-31T13:32:39.035Z,1.45
2023-01-31T13:33:48.104Z,1.80
2023-01-31T13:35:03.425Z,1.80
2023-01-31T13:36:12.231Z,1.90
2023-01-31T13:37:21.372Z,2.05
2023-01-31T13:38:31.438Z,2.03
2023-01-31T13:39:40.919Z,2.92
2023-01-31T13:40:53.205Z,2.10
2023-01-31T13:41:55.971Z,1.92
2023-01-31T13:43:08.686Z,2.40
2023-01-31T13:44:14.459Z,1.52
2023-01-31T13:45:28.685Z,1.45
2023-01-31T13:46:35.933Z,2.03
2023-01-31T13:47:48.792Z,1.55
2023-01-31T13:49:03.655Z,2.05
2023-01-31T13:50:18.285Z,2.50
2023-01-31T13:51:30.016Z,1.95
2023-01-31T13:52:42.135Z,1.90
2023-01-31T13:53:56.659Z,2.00
2023-01-31T13:55:04.256Z,2.33
2023-01-31T13:56:12.895Z,3.47
2023-01-31T13:57:30.270Z,2.22
2023-01-31T13:58:35.499Z,2.08
2023-01-31T13:59:38.787Z,2.60
2023-01-31T14:00:44.680Z,2.65
2023-01-31T14:01:50.266Z,2.08
2023-01-31T14:03:04.916Z,2.65
2023-01-31T14:04:14.872Z,2.92
2023-01-31T14:05:51.295Z,2.75
2023-01-31T14:06:57.055Z,2.03
2023-01-31T14:08:27.236Z,2.72
2023-01-31T14:09:32.461Z,2.53
2023-01-31T14:10:42.905Z,2.58
2023-01-31T14:11:45.545Z,2.85
2023-01-31T14:12:49.029Z,2.03
2023-01-31T14:14:21.780Z,2.95
2023-01-31T14:15:50.139Z,2.70
2023-01-31T14:16:53.352Z,3.20
2023-01-31T14:18:01.030Z,2.10
2023-01-31T14:19:24.696Z,4.00
2023-01-31T14:20:31.025Z,2.17
2023-01-31T14:21:36.548Z,2.63
2023-01-31T14:22:41.520Z,2.65
2023-01-31T14:23:47.324Z,2.55
2023-01-31T14:24:50.237Z,1.90
2023-01-31T14:25:52.764Z,1.90
2023-01-31T14:26:55.403Z,3.10
2023-01-31T14:27:57.797Z,2.58
2023-01-31T14:29:07.878Z,2.65
2023-01-31T14:30:19.169Z,2.03
2023-01-31T14:31:22.200Z,3.13
2023-01-31T14:32:57.682Z,2.83
2023-01-31T14:34:00.686Z,2.83
2023-01-31T14:35:15.207Z,3.72
2023-01-31T14:36:33.810Z,2.53
2023-01-31T14:37:44.853Z,1.98
2023-01-31T14:39:19.056Z,2.90
2023-01-31T14:40:29.377Z,4.20
2023-01-31T14:41:53.018Z,2.78
2023-01-31T14:43:07.658Z,2.67
2023-01-31T14:44:40.918Z,2.42
2023-01-31T14:46:26.759Z,2.50
2023-01-31T14:47:38.747Z,4.22
2023-01-31T14:49:00.114Z,3.92
2023-01-31T14:50:24.596Z,2.05
2023-01-31T14:52:02.634Z,1.88
2023-01-31T14:53:42.237Z,3.95
2023-01-31T14:55:03.374Z,3.33
2023-01-31T14:57:28.100Z,2.78
2023-01-31T14:58:45.028Z,2.40
2023-01-31T15:00:14.771Z,3.75
2023-01-31T15:01:21.646Z,3.65
2023-01-31T15:02:36.981Z,1.63
2023-01-31T15:03:51.252Z,2.33
2023-01-31T15:05:20.398Z,2.88
2023-01-31T15:06:31.098Z,1.55
2023-01-31T15:07:34.465Z,1.50
2023-01-31T15:08:43.345Z,2.63
2023-01-31T15:09:48.383Z,2.08
2023-01-31T15:11:40.996Z,2.38
2023-01-31T15:13:01.833Z,1.90
2023-01-31T15:14:33.782Z,1.52
2023-01-31T15:15:40.113Z,1.67
2023-01-31T15:16:44.651Z,2.47
2023-01-31T15:17:48.760Z,2.30
2023-01-31T15:19:11.321Z,1.95
2023-01-31T15:20:34.597Z,1.70
2023-01-31T15:21:49.123Z,2.53
2023-01-31T15:22:58.842Z,1.52
2023-01-31T15:24:03.182Z,2.42